Time;durP1;ratioP1;P1;durP2;ratioP2;P2;SDS_P1;SDS_P2;PMS_P1;PMS_P2;Temp;Humidity;BMP_temperature;BMP_pressure;BME280_temperature;BME280_humidity;BME280_pressure;Samples;Min_cycle;Max_cycle;Signal;HPM_P1;HPM_P2
2022/01/19 00:01:11;;;;;;;1.52;1.42;;;4.90;99.90;;;;;;5098615;28;20035;-80
2022/01/19 00:03:37;;;;;;;0.50;0.50;;;4.80;99.90;;;;;;5117113;28;20023;-79
2022/01/19 00:06:03;;;;;;;3.35;2.53;;;4.80;99.90;;;;;;5117078;28;20130;-80
2022/01/19 00:08:29;;;;;;;0.65;0.65;;;4.80;99.90;;;;;;5116820;28;20044;-80
2022/01/19 00:10:55;;;;;;;0.60;0.60;;;4.90;99.90;;;;;;5098616;28;20043;-81
2022/01/19 00:13:20;;;;;;;2.22;1.90;;;4.90;99.90;;;;;;5081837;28;20554;-80
2022/01/19 00:15:47;;;;;;;1.85;1.67;;;4.90;99.90;;;;;;5098297;28;20036;-80
2022/01/19 00:18:13;;;;;;;1.30;1.20;;;4.90;99.90;;;;;;5098650;28;20150;-80
2022/01/19 00:20:39;;;;;;;0.50;0.50;;;4.90;99.90;;;;;;5116425;28;20761;-80
2022/01/19 00:23:05;;;;;;;0.60;0.60;;;4.90;99.90;;;;;;5116665;28;20081;-80
2022/01/19 00:25:32;;;;;;;0.60;0.60;;;4.90;99.90;;;;;;5081442;28;20046;-80
2022/01/19 00:27:58;;;;;;;0.50;0.50;;;4.90;99.90;;;;;;5098623;28;20044;-80
2022/01/19 00:30:24;;;;;;;0.70;0.70;;;4.80;99.90;;;;;;5116191;28;20479;-81
2022/01/19 00:32:49;;;;;;;0.60;0.60;;;5.00;99.90;;;;;;5098376;28;20050;-80
2022/01/19 00:35:15;;;;;;;0.55;0.55;;;5.00;99.90;;;;;;5116556;28;20047;-80
2022/01/19 00:37:42;;;;;;;0.50;0.50;;;5.00;99.90;;;;;;5116382;28;20112;-80
2022/01/19 00:40:10;;;;;;;0.70;0.70;;;5.00;99.90;;;;;;5098362;28;20409;-80
2022/01/19 00:42:36;;;;;;;0.70;0.70;;;5.00;99.90;;;;;;5116281;28;20042;-80
2022/01/19 00:45:04;;;;;;;0.80;0.80;;;5.00;99.90;;;;;;5116318;28;20043;-81
2022/01/19 00:47:29;;;;;;;0.68;0.68;;;5.00;99.90;;;;;;5116180;28;20131;-80
2022/01/19 00:49:55;;;;;;;1.23;1.13;;;5.00;99.90;;;;;;5098602;28;20079;-80
2022/01/19 00:52:21;;;;;;;2.92;2.70;;;4.90;99.90;;;;;;5081172;28;20107;-80
2022/01/19 00:54:46;;;;;;;2.28;1.25;;;4.90;99.90;;;;;;5116193;28;20039;-80
2022/01/19 00:57:13;;;;;;;0.90;0.75;;;4.90;99.90;;;;;;5098181;28;20399;-80
2022/01/19 00:59:38;;;;;;;0.60;0.60;;;5.00;99.90;;;;;;5097761;28;20542;-80
2022/01/19 01:02:07;;;;;;;0.50;0.50;;;4.90;99.90;;;;;;5098552;28;20274;-81
2022/01/19 01:04:33;;;;;;;0.85;0.85;;;4.90;99.90;;;;;;5080973;28;20046;-80
2022/01/19 01:06:59;;;;;;;1.27;1.20;;;4.80;99.90;;;;;;5116126;28;20031;-80
2022/01/19 01:09:25;;;;;;;0.60;0.60;;;4.70;99.90;;;;;;5097785;28;20394;-80
2022/01/19 01:12:09;;;;;;;0.60;0.60;;;4.60;99.90;;;;;;5081044;28;20047;-80
2022/01/19 01:20:12;;;;;;;0.60;0.60;;;4.40;99.90;;;;;;5097157;28;20126;-80
2022/01/19 01:22:39;;;;;;;1.85;1.75;;;4.40;99.90;;;;;;5097356;28;20043;-81
2022/01/19 01:25:05;;;;;;;;;;;4.30;99.90;;;;;;5080874;28;20118;-80
2022/01/19 01:27:31;;;;;;;0.50;0.50;;;4.20;99.90;;;;;;5113830;28;19919;-80
2022/01/19 01:29:57;;;;;;;0.57;0.57;;;4.10;99.90;;;;;;5097163;28;20386;-80
2022/01/19 01:32:22;;;;;;;0.57;0.57;;;4.00;99.90;;;;;;5096886;28;20114;-80
2022/01/19 01:34:50;;;;;;;0.73;0.73;;;4.00;99.90;;;;;;5063648;28;20050;-80
2022/01/19 01:37:16;;;;;;;0.60;0.60;;;3.90;99.90;;;;;;5096508;28;20039;-80
2022/01/19 01:39:42;;;;;;;1.73;1.63;;;3.80;99.90;;;;;;5096739;28;20043;-80
2022/01/19 01:42:09;;;;;;;0.60;0.60;;;3.70;99.90;;;;;;5114759;28;20031;-80
2022/01/19 01:44:37;;;;;;;0.80;0.80;;;3.60;99.90;;;;;;5096806;28;20429;-80
2022/01/19 01:47:07;;;;;;;0.60;0.60;;;3.60;99.90;;;;;;5096517;28;20082;-80
2022/01/19 01:55:14;;;;;;;0.60;0.60;;;3.40;99.90;;;;;;5114842;28;20043;-80
2022/01/19 01:57:40;;;;;;;0.60;0.60;;;3.30;99.90;;;;;;5114840;28;20421;-80
2022/01/19 02:00:09;;;;;;;0.77;0.77;;;3.20;99.90;;;;;;5096702;28;20032;-80
2022/01/19 02:02:35;;;;;;;0.60;0.60;;;3.20;99.90;;;;;;5114778;28;20043;-80
2022/01/19 02:05:01;;;;;;;0.60;0.60;;;3.10;99.90;;;;;;5115262;28;20043;-80
2022/01/19 02:07:42;;;;;;;0.60;0.60;;;2.90;99.90;;;;;;5079838;28;20038;-80
2022/01/19 02:10:19;;;;;;;1.08;0.98;;;3.00;99.90;;;;;;5096681;28;20062;-80
2022/01/19 02:23:49;;;;;;;0.90;0.90;;;3.00;99.90;;;;;;5095988;28;20047;-80
2022/01/19 02:26:23;;;;;;;0.82;0.82;;;3.00;99.90;;;;;;5063745;28;20031;-80
2022/01/19 02:31:54;;;;;;;0.70;0.70;;;2.90;99.90;;;;;;5114667;28;20116;-80
2022/01/19 02:40:07;;;;;;;1.27;1.25;;;2.80;99.90;;;;;;5114937;28;20043;-80
2022/01/19 02:42:39;;;;;;;0.70;0.70;;;2.90;99.90;;;;;;5114518;28;20035;-80
2022/01/19 02:49:58;;;;;;;0.60;0.60;;;2.80;99.90;;;;;;5114204;28;20118;-80
2022/01/19 02:52:25;;;;;;;1.47;1.37;;;2.80;99.90;;;;;;5095851;28;20039;-80
2022/01/19 02:54:51;;;;;;;0.70;0.70;;;2.70;99.90;;;;;;5082424;28;20479;-80
2022/01/19 02:57:23;;;;;;;0.60;0.60;;;2.70;99.90;;;;;;5099888;28;20042;-79
2022/01/19 03:10:35;;;;;;;0.77;0.77;;;2.60;99.90;;;;;;5099592;28;20079;-80
2022/01/19 03:13:01;;;;;;;0.60;0.60;;;2.60;99.90;;;;;;5082930;28;20083;-80
2022/01/19 03:15:27;;;;;;;1.10;1.00;;;2.50;99.90;;;;;;5099819;28;20043;-80
2022/01/19 03:17:57;;;;;;;4.00;2.88;;;2.50;99.90;;;;;;5099451;28;20046;-79
2022/01/19 03:20:23;;;;;;;1.83;1.73;;;2.50;99.90;;;;;;5117898;28;20040;-80
2022/01/19 03:23:00;;;;;;;0.73;0.73;;;2.50;99.90;;;;;;5099646;28;20047;-80
2022/01/19 03:25:25;;;;;;;3.33;2.35;;;2.50;99.90;;;;;;5117770;28;20274;-79
2022/01/19 03:27:51;;;;;;;0.70;0.70;;;2.50;99.90;;;;;;5099209;28;20050;-79
2022/01/19 03:30:19;;;;;;;0.60;0.60;;;2.50;99.90;;;;;;5099141;28;20040;-79
2022/01/19 03:32:45;;;;;;;1.00;1.00;;;2.60;99.90;;;;;;5117737;28;20418;-80
2022/01/19 03:35:12;;;;;;;0.60;0.60;;;2.50;99.90;;;;;;5082213;28;20050;-79
2022/01/19 03:37:37;;;;;;;0.93;0.93;;;2.60;99.90;;;;;;5117650;28;20073;-79
2022/01/19 03:40:05;;;;;;;0.60;0.60;;;2.60;99.90;;;;;;5117329;28;20483;-80
2022/01/19 03:42:31;;;;;;;3.33;1.35;;;2.60;99.90;;;;;;5117714;28;20122;-79
2022/01/19 03:44:57;;;;;;;0.80;0.80;;;2.60;99.90;;;;;;5098883;28;20071;-79
2022/01/19 03:47:25;;;;;;;1.38;1.30;;;2.60;99.90;;;;;;5115934;28;20051;-79
2022/01/19 03:49:51;;;;;;;0.60;0.60;;;2.60;99.90;;;;;;5082226;28;20039;-79
2022/01/19 03:52:17;;;;;;;0.75;0.75;;;2.60;99.90;;;;;;5117176;28;20028;-80
2022/01/19 03:54:43;;;;;;;0.82;0.80;;;2.60;99.90;;;;;;5117184;28;20185;-79
2022/01/19 03:57:10;;;;;;;0.63;0.63;;;2.60;99.90;;;;;;5117010;28;20114;-80
2022/01/19 03:59:36;;;;;;;0.70;0.70;;;2.50;99.90;;;;;;5116669;28;20078;-80
2022/01/19 04:02:02;;;;;;;2.33;2.10;;;2.50;99.90;;;;;;5098869;28;20071;-80
2022/01/19 04:09:32;;;;;;;0.60;0.60;;;2.30;99.90;;;;;;5098828;28;20176;-80
2022/01/19 04:11:58;;;;;;;0.60;0.60;;;2.30;99.90;;;;;;5081931;28;20051;-80
2022/01/19 04:14:25;;;;;;;0.60;0.60;;;2.20;99.90;;;;;;5116958;28;20051;-79
2022/01/19 04:16:53;;;;;;;0.60;0.60;;;2.30;99.90;;;;;;5098534;28;20046;-79
2022/01/19 04:21:45;;;;;;;0.70;0.70;;;2.30;99.90;;;;;;5098808;28;20134;-79
2022/01/19 04:24:10;;;;;;;0.60;0.60;;;2.30;99.90;;;;;;5098376;28;20440;-79
2022/01/19 04:26:36;;;;;;;0.68;0.68;;;2.20;99.90;;;;;;5098459;28;20487;-79
2022/01/19 04:29:02;;;;;;;0.70;0.70;;;2.30;99.90;;;;;;5081281;28;20036;-79
2022/01/19 04:31:28;;;;;;;0.80;0.80;;;2.20;99.90;;;;;;5116474;28;20043;-80
2022/01/19 04:33:53;;;;;;;0.60;0.60;;;2.20;99.90;;;;;;5098026;28;20555;-80
2022/01/19 04:36:31;;;;;;;0.70;0.70;;;2.20;99.90;;;;;;5114788;28;20047;-80
2022/01/19 04:44:36;;;;;;;0.60;0.60;;;2.30;99.90;;;;;;5115924;28;20123;-79
2022/01/19 05:03:20;;;;;;;1.00;0.93;;;1.90;99.90;;;;;;5095705;28;20369;-80
2022/01/19 05:05:59;;;;;;;0.70;0.70;;;1.90;99.90;;;;;;5095816;28;20085;-80
2022/01/19 05:13:38;;;;;;;0.70;0.70;;;1.90;99.90;;;;;;5094148;28;20075;-80
2022/01/19 05:16:04;;;;;;;0.80;0.80;;;1.90;99.90;;;;;;5094995;28;20400;-80
2022/01/19 05:18:34;;;;;;;0.60;0.60;;;1.90;99.90;;;;;;5094284;28;20123;-80
2022/01/19 05:20:59;;;;;;;0.70;0.70;;;1.80;99.90;;;;;;5094140;28;20028;-80
2022/01/19 05:23:25;;;;;;;0.70;0.70;;;1.80;99.90;;;;;;5095462;28;20476;-79
2022/01/19 05:25:51;;;;;;;0.70;0.70;;;1.80;99.90;;;;;;5093924;28;20054;-80
2022/01/19 05:28:17;;;;;;;0.70;0.70;;;1.70;99.90;;;;;;5094014;28;20040;-80
2022/01/19 05:30:42;;;;;;;0.70;0.70;;;1.70;99.90;;;;;;5093722;28;20066;-80
2022/01/19 05:33:11;;;;;;;0.60;0.60;;;1.80;99.90;;;;;;5095127;28;20513;-80
2022/01/19 05:35:36;;;;;;;0.70;0.70;;;1.70;99.90;;;;;;5093699;28;20399;-80
2022/01/19 05:38:02;;;;;;;0.70;0.70;;;1.70;99.90;;;;;;5093827;28;20036;-80
2022/01/19 05:40:28;;;;;;;0.70;0.70;;;1.70;99.90;;;;;;5094050;28;20057;-80
2022/01/19 05:42:53;;;;;;;0.70;0.70;;;1.70;99.90;;;;;;5076715;28;20089;-80
2022/01/19 05:45:19;;;;;;;1.23;1.20;;;1.80;99.90;;;;;;5076511;28;20079;-80
2022/01/19 05:47:45;;;;;;;0.97;0.93;;;1.70;99.90;;;;;;5073313;28;20062;-80
2022/01/19 05:50:12;;;;;;;0.70;0.70;;;1.70;99.90;;;;;;5073564;28;20032;-80
2022/01/19 05:52:38;;;;;;;3.17;2.95;;;1.70;99.90;;;;;;5090130;28;20082;-80
2022/01/19 05:55:04;;;;;;;0.80;0.80;;;1.70;99.90;;;;;;5074455;28;20493;-80
2022/01/19 05:57:31;;;;;;;0.70;0.70;;;1.80;99.90;;;;;;5056615;28;20048;-80
2022/01/19 05:59:57;;;;;;;0.60;0.60;;;1.70;99.90;;;;;;5074234;28;20282;-80
2022/01/19 06:02:22;;;;;;;0.60;0.60;;;1.70;99.90;;;;;;5089796;28;20040;-80
2022/01/19 06:04:49;;;;;;;0.70;0.70;;;1.70;99.90;;;;;;5072723;28;20396;-80
2022/01/19 06:07:15;;;;;;;;;;;1.70;99.90;;;;;;5074746;28;20048;-80
2022/01/19 06:12:12;;;;;;;0.68;0.68;;;1.60;99.90;;;;;;5089681;28;20439;-80
2022/01/19 06:14:39;;;;;;;0.60;0.60;;;1.60;99.90;;;;;;5090027;28;20455;-80
2022/01/19 06:17:07;;;;;;;0.60;0.60;;;1.80;99.90;;;;;;5073926;28;20070;-80
2022/01/19 06:19:34;;;;;;;0.70;0.70;;;1.60;99.90;;;;;;5056166;28;20112;-80
2022/01/19 06:22:00;;;;;;;0.88;0.88;;;1.60;99.90;;;;;;5074108;28;20060;-78
2022/01/19 06:24:25;;;;;;;0.80;0.80;;;1.70;99.90;;;;;;5089551;28;20562;-78
2022/01/19 06:26:51;;;;;;;0.63;0.63;;;1.70;99.90;;;;;;5073798;28;20036;-79
2022/01/19 06:29:17;;;;;;;0.70;0.70;;;1.70;99.90;;;;;;5072415;28;20473;-82
2022/01/19 06:31:43;;;;;;;0.60;0.60;;;1.70;99.90;;;;;;5072783;28;20115;-82
2022/01/19 06:34:08;;;;;;;0.60;0.60;;;1.70;99.90;;;;;;5073751;28;20044;-80
2022/01/19 06:36:34;;;;;;;0.63;0.63;;;1.80;99.90;;;;;;5073752;28;20068;-78
2022/01/19 06:39:00;;;;;;;0.82;0.82;;;1.80;99.90;;;;;;5073767;28;20427;-78
2022/01/19 06:41:25;;;;;;;0.80;0.80;;;1.80;99.90;;;;;;5072393;28;20484;-76
2022/01/19 06:43:51;;;;;;;0.80;0.80;;;1.80;99.90;;;;;;5073684;28;20033;-79
2022/01/19 06:46:17;;;;;;;0.70;0.70;;;1.90;99.90;;;;;;5072305;28;20101;-76
2022/01/19 06:48:43;;;;;;;0.90;0.90;;;1.90;99.90;;;;;;5101343;28;20062;-80
2022/01/19 06:51:08;;;;;;;1.88;1.77;;;1.90;99.90;;;;;;5114107;28;20047;-78
2022/01/19 06:53:34;;;;;;;0.70;0.70;;;2.00;99.90;;;;;;5114045;28;20036;-77
2022/01/19 06:56:00;;;;;;;1.00;1.00;;;2.00;99.90;;;;;;5095594;28;20048;-77
2022/01/19 06:58:27;;;;;;;0.90;0.90;;;2.30;99.90;;;;;;5114006;28;20032;-78
2022/01/19 07:00:52;;;;;;;;;;;2.20;99.90;;;;;;5114280;28;20035;-78
2022/01/19 07:03:18;;;;;;;1.60;1.50;;;2.20;99.90;;;;;;5095449;28;20018;-79
2022/01/19 07:05:44;;;;;;;0.80;0.80;;;2.20;99.90;;;;;;5113979;28;20387;-79
2022/01/19 07:08:09;;;;;;;0.70;0.70;;;2.30;99.90;;;;;;5113917;28;20398;-81
2022/01/19 07:10:35;;;;;;;0.70;0.70;;;2.30;99.90;;;;;;5113965;28;20032;-78
2022/01/19 07:13:02;;;;;;;1.42;1.33;;;2.50;99.90;;;;;;5113930;28;20556;-79
2022/01/19 07:15:28;;;;;;;0.70;0.70;;;2.40;99.90;;;;;;5095538;28;20036;-79
2022/01/19 07:17:54;;;;;;;1.05;0.95;;;2.40;99.90;;;;;;5113871;28;20034;-78
2022/01/19 07:20:19;;;;;;;1.05;0.73;;;2.50;99.90;;;;;;5112594;28;20031;-76
2022/01/19 07:22:46;;;;;;;2.28;1.88;;;2.50;99.90;;;;;;5095352;28;20131;-79
2022/01/19 07:25:12;;;;;;;;;;;2.60;99.90;;;;;;5114041;28;20118;-79
2022/01/19 07:27:37;;;;;;;0.70;0.70;;;2.60;99.90;;;;;;5095517;28;19958;-79
2022/01/19 07:30:05;;;;;;;0.60;0.60;;;2.70;99.90;;;;;;5113681;28;20146;-78
2022/01/19 07:32:34;;;;;;;0.70;0.70;;;2.70;99.90;;;;;;5112598;28;20082;-78
2022/01/19 07:35:01;;;;;;;2.85;2.65;;;2.80;99.90;;;;;;5112395;28;20073;-78
2022/01/19 07:37:26;;;;;;;;;;;2.70;99.90;;;;;;5095622;28;20035;-77
2022/01/19 07:39:53;;;;;;;2.10;2.00;;;2.70;99.90;;;;;;5115374;28;19923;-77
2022/01/19 07:42:19;;;;;;;1.10;1.00;;;2.70;99.90;;;;;;5117416;28;20088;-77
2022/01/19 07:44:45;;;;;;;1.05;1.05;;;2.80;99.90;;;;;;5117106;28;20458;-78
2022/01/19 07:47:10;;;;;;;0.85;0.85;;;2.90;99.90;;;;;;5116999;28;20044;-77
2022/01/19 07:49:36;;;;;;;1.25;1.15;;;2.90;99.90;;;;;;5117852;28;20122;-77
2022/01/19 07:52:02;;;;;;;1.42;1.33;;;2.90;99.90;;;;;;5117274;28;20085;-78
2022/01/19 07:54:28;;;;;;;0.70;0.70;;;2.90;99.90;;;;;;5117167;28;20441;-78
2022/01/19 07:56:53;;;;;;;2.05;1.95;;;3.00;99.90;;;;;;5117079;28;20544;-78
2022/01/19 07:59:19;;;;;;;0.77;0.77;;;3.00;99.90;;;;;;5117188;28;20516;-78
2022/01/19 08:01:45;;;;;;;0.70;0.70;;;3.00;99.90;;;;;;5117050;28;20067;-79
2022/01/19 08:04:10;;;;;;;2.92;2.75;;;3.00;99.90;;;;;;5104198;27;20082;-78
2022/01/19 08:06:36;;;;;;;1.55;1.45;;;3.00;99.90;;;;;;5118271;27;20403;-77
2022/01/19 08:09:03;;;;;;;0.82;0.82;;;3.00;99.90;;;;;;5137124;27;20444;-78
2022/01/19 08:11:28;;;;;;;1.20;0.95;;;3.00;99.90;;;;;;5118159;27;20540;-78
2022/01/19 08:13:54;;;;;;;0.88;0.88;;;3.00;99.90;;;;;;5118351;27;20035;-78
2022/01/19 08:16:21;;;;;;;1.38;1.25;;;3.10;99.90;;;;;;5118207;27;20039;-77
2022/01/19 08:18:47;;;;;;;;;;;3.00;99.90;;;;;;5118716;27;20101;-78
2022/01/19 08:21:12;;;;;;;0.70;0.70;;;3.00;99.90;;;;;;5101185;27;20429;-77
2022/01/19 08:23:38;;;;;;;0.88;0.88;;;3.10;99.90;;;;;;5118392;27;20501;-78
2022/01/19 08:26:03;;;;;;;1.95;0.98;;;3.10;99.90;;;;;;5101160;27;20046;-79
2022/01/19 08:28:29;;;;;;;1.10;1.10;;;3.10;99.90;;;;;;5100626;27;20031;-78
2022/01/19 08:30:55;;;;;;;1.17;1.08;;;3.10;99.90;;;;;;5115737;27;20376;-78
2022/01/19 08:33:20;;;;;;;0.90;0.90;;;3.10;99.90;;;;;;5133993;27;20074;-78
2022/01/19 08:35:46;;;;;;;1.90;1.80;;;3.10;99.90;;;;;;5135917;27;20062;-78
2022/01/19 08:38:11;;;;;;;9.13;5.13;;;3.10;99.90;;;;;;5117691;27;20039;-77
2022/01/19 08:40:37;;;;;;;1.17;1.17;;;3.10;99.90;;;;;;5136430;27;20129;-77
2022/01/19 08:43:03;;;;;;;0.90;0.90;;;3.10;99.90;;;;;;5118005;27;20037;-78
2022/01/19 08:45:29;;;;;;;0.70;0.70;;;3.10;99.90;;;;;;5100767;27;20035;-77
2022/01/19 08:47:55;;;;;;;0.80;0.80;;;3.10;99.90;;;;;;5117517;27;20383;-77
2022/01/19 08:50:21;;;;;;;1.00;1.00;;;3.20;99.90;;;;;;5116978;28;20047;-78
2022/01/19 08:52:47;;;;;;;0.85;0.85;;;3.20;99.90;;;;;;5135637;27;20096;-78
2022/01/19 08:55:13;;;;;;;0.77;0.77;;;3.20;99.90;;;;;;5117656;27;20057;-78
2022/01/19 08:57:39;;;;;;;1.10;1.00;;;3.20;99.90;;;;;;5117718;27;20039;-77
2022/01/19 09:00:09;;;;;;;1.20;1.13;;;3.20;99.90;;;;;;5117807;27;20118;-77
2022/01/19 09:02:34;;;;;;;1.60;1.50;;;3.20;99.90;;;;;;5117980;27;20411;-77
2022/01/19 09:05:01;;;;;;;0.85;0.85;;;3.30;99.90;;;;;;5136428;27;20039;-78
2022/01/19 09:07:27;;;;;;;1.27;1.17;;;3.30;99.90;;;;;;5118200;27;20114;-77
2022/01/19 09:09:52;;;;;;;3.05;2.25;;;3.30;99.90;;;;;;5136318;27;20161;-77
2022/01/19 09:12:18;;;;;;;1.75;1.65;;;3.30;99.90;;;;;;5135949;27;20074;-78
2022/01/19 09:14:43;;;;;;;0.80;0.80;;;3.40;99.90;;;;;;5117739;27;20479;-76
2022/01/19 09:17:09;;;;;;;1.23;1.13;;;3.40;99.90;;;;;;5135979;27;20039;-79
2022/01/19 09:19:41;;;;;;;1.10;1.10;;;3.40;99.90;;;;;;5135922;27;20110;-77
2022/01/19 09:22:09;;;;;;;0.70;0.70;;;3.40;99.90;;;;;;5136024;27;20042;-79
2022/01/19 09:24:36;;;;;;;0.85;0.85;;;3.50;99.90;;;;;;5135969;27;20114;-78
2022/01/19 09:27:03;;;;;;;1.05;0.98;;;3.50;99.90;;;;;;5135596;27;20091;-77
2022/01/19 09:29:29;;;;;;;2.05;1.58;;;3.50;99.90;;;;;;5100605;27;20390;-77
2022/01/19 09:31:56;;;;;;;0.70;0.70;;;3.50;99.90;;;;;;5135814;27;20039;-78
2022/01/19 09:34:23;;;;;;;2.75;1.73;;;3.60;99.90;;;;;;5135794;27;20050;-78
2022/01/19 09:36:49;;;;;;;0.60;0.60;;;3.60;99.90;;;;;;5135730;27;20032;-77
2022/01/19 09:39:19;;;;;;;1.75;1.63;;;3.60;99.90;;;;;;5135533;27;20038;-78
2022/01/19 09:41:46;;;;;;;27.60;5.50;;;3.60;99.90;;;;;;5135557;27;20071;-77
2022/01/19 09:44:12;;;;;;;3.55;3.22;;;3.60;99.90;;;;;;5135550;27;20035;-78
2022/01/19 09:46:38;;;;;;;27.65;8.88;;;3.70;99.90;;;;;;5135545;27;20752;-78
2022/01/19 09:49:07;;;;;;;1.40;1.30;;;3.70;99.90;;;;;;5135150;27;20104;-79
2022/01/19 09:51:34;;;;;;;0.93;0.90;;;3.70;99.90;;;;;;5117114;27;20042;-78
2022/01/19 09:53:59;;;;;;;2.00;1.88;;;3.70;99.90;;;;;;5135427;27;20035;-81
2022/01/19 09:56:25;;;;;;;1.17;1.15;;;3.80;99.90;;;;;;5135007;27;20039;-79
2022/01/19 09:58:51;;;;;;;0.75;0.75;;;3.70;99.90;;;;;;5117001;27;20027;-79
2022/01/19 10:01:22;;;;;;;1.00;0.90;;;3.80;99.90;;;;;;5132647;27;20129;-80
2022/01/19 10:03:48;;;;;;;0.80;0.80;;;3.80;99.90;;;;;;5134582;27;20042;-80
2022/01/19 10:06:19;;;;;;;0.80;0.80;;;3.80;99.90;;;;;;5116473;27;20039;-81
2022/01/19 10:08:54;;;;;;;2.08;1.92;;;3.90;99.90;;;;;;5135021;27;20047;-80
2022/01/19 10:17:02;;;;;;;1.08;0.98;;;3.90;99.90;;;;;;5134110;27;20047;-82
2022/01/19 10:19:29;;;;;;;;;;;4.00;99.90;;;;;;5129729;27;20039;-79
2022/01/19 10:22:25;;;;;;;1.42;1.33;;;4.00;99.90;;;;;;5127509;27;19922;-79
2022/01/19 10:25:04;;;;;;;2.08;1.98;;;4.10;99.90;;;;;;5126468;27;20055;-78
2022/01/19 10:27:34;;;;;;;1.45;1.35;;;4.10;99.90;;;;;;5130311;27;20031;-79
2022/01/19 10:30:02;;;;;;;1.45;1.40;;;4.10;99.90;;;;;;5130022;27;20039;-78
2022/01/19 10:32:30;;;;;;;1.30;1.20;;;4.10;99.90;;;;;;5134359;27;20114;-79
2022/01/19 10:34:55;;;;;;;2.90;2.65;;;4.00;99.90;;;;;;5134413;27;20045;-79
2022/01/19 10:37:28;;;;;;;3.30;3.03;;;4.00;99.90;;;;;;5134549;27;20043;-80
2022/01/19 10:39:57;;;;;;;5.05;2.55;;;4.00;99.90;;;;;;5134622;27;20036;-78
2022/01/19 10:42:26;;;;;;;2.33;1.98;;;3.90;99.90;;;;;;5134593;28;20482;-80
2022/01/19 10:45:07;;;;;;;2.05;0.80;;;3.90;99.90;;;;;;5134440;28;20071;-81
2022/01/19 10:47:56;;;;;;;0.60;0.60;;;3.90;99.90;;;;;;5112519;28;20058;-80
2022/01/19 10:50:25;;;;;;;0.80;0.80;;;3.90;99.90;;;;;;5114083;28;20085;-79
2022/01/19 10:52:54;;;;;;;1.88;1.38;;;3.90;99.90;;;;;;5113991;28;20036;-79
2022/01/19 10:55:19;;;;;;;1.80;1.70;;;3.90;99.90;;;;;;5113946;28;20074;-82
2022/01/19 10:57:46;;;;;;;3.60;3.40;;;3.90;99.90;;;;;;5114023;28;20071;-78
2022/01/19 11:00:29;;;;;;;1.33;1.25;;;3.90;99.90;;;;;;5114005;28;20036;-75
2022/01/19 11:02:59;;;;;;;3.70;3.35;;;3.90;99.90;;;;;;5113232;28;20043;-78
2022/01/19 11:05:49;;;;;;;2.58;2.47;;;4.00;99.90;;;;;;5096413;28;20422;-76
2022/01/19 11:08:18;;;;;;;1.48;1.30;;;3.90;99.90;;;;;;5113977;28;20122;-77
2022/01/19 11:10:48;;;;;;;2.88;2.67;;;3.90;99.90;;;;;;5113968;28;20036;-78
2022/01/19 11:13:28;;;;;;;3.38;2.75;;;3.90;99.90;;;;;;5114009;28;20044;-78
2022/01/19 11:15:55;;;;;;;2.95;2.75;;;3.90;99.90;;;;;;5115866;28;20040;-78
2022/01/19 11:18:25;;;;;;;2.05;1.40;;;3.90;99.90;;;;;;5117743;28;20043;-78
2022/01/19 11:20:51;;;;;;;2.42;2.33;;;4.00;99.90;;;;;;5117816;28;20031;-78
2022/01/19 11:23:43;;;;;;;2.50;1.80;;;4.10;99.90;;;;;;5117599;28;20032;-77
2022/01/19 11:26:14;;;;;;;4.75;4.43;;;4.00;99.90;;;;;;5111948;27;20040;-79
2022/01/19 11:28:45;;;;;;;1.30;1.20;;;4.00;99.90;;;;;;5117615;28;20360;-79
2022/01/19 11:31:21;;;;;;;1.60;0.90;;;4.00;99.90;;;;;;5117653;28;20077;-79
2022/01/19 11:33:51;;;;;;;1.65;1.45;;;4.00;99.90;;;;;;5116589;28;20419;-79
2022/01/19 11:36:25;;;;;;;0.90;0.90;;;4.00;99.90;;;;;;5102197;28;20045;-78
2022/01/19 11:39:14;;;;;;;2.90;2.70;;;4.00;99.90;;;;;;5088013;28;20511;-78
2022/01/19 11:41:51;;;;;;;1.77;1.67;;;4.00;99.90;;;;;;5096660;28;20475;-79
2022/01/19 11:44:23;;;;;;;;;;;4.00;99.90;;;;;;5096009;28;20039;-79
2022/01/19 11:46:52;;;;;;;6.93;6.22;;;4.00;99.90;;;;;;5096643;28;19916;-78
2022/01/19 11:49:47;;;;;;;3.20;2.95;;;4.00;99.90;;;;;;5114458;28;20056;-78
2022/01/19 11:52:16;;;;;;;2.15;2.05;;;4.00;99.90;;;;;;5117169;28;20139;-79
2022/01/19 11:54:43;;;;;;;4.90;4.57;;;4.00;99.90;;;;;;5117031;28;20044;-80
2022/01/19 11:57:11;;;;;;;0.70;0.70;;;4.00;99.90;;;;;;5116824;28;20044;-78
2022/01/19 11:59:46;;;;;;;1.20;0.82;;;4.00;99.90;;;;;;5116952;28;20031;-79
2022/01/19 12:02:20;;;;;;;4.53;4.18;;;3.90;99.90;;;;;;5116656;28;20119;-79
2022/01/19 12:04:56;;;;;;;2.40;2.25;;;3.90;99.90;;;;;;5116737;28;20039;-79
2022/01/19 12:07:40;;;;;;;1.60;1.50;;;3.90;99.90;;;;;;5116887;28;20185;-79
2022/01/19 12:10:09;;;;;;;1.88;1.73;;;3.90;99.90;;;;;;5116874;28;20085;-80
2022/01/19 12:12:42;;;;;;;1.02;1.00;;;3.90;99.90;;;;;;5116292;28;20032;-79
2022/01/19 12:15:28;;;;;;;4.50;3.97;;;3.80;99.90;;;;;;5116242;28;20467;-80
2022/01/19 12:18:07;;;;;;;0.60;0.60;;;3.80;99.90;;;;;;5115165;28;20144;-79
2022/01/19 12:20:52;;;;;;;8.95;3.58;;;3.80;99.90;;;;;;5116676;28;20043;-79
2022/01/19 12:23:27;;;;;;;1.05;1.02;;;3.90;99.90;;;;;;5116462;28;20088;-79
2022/01/19 12:25:55;;;;;;;0.70;0.70;;;3.90;99.90;;;;;;5116098;28;20077;-79
2022/01/19 12:28:47;;;;;;;1.45;1.35;;;3.90;99.90;;;;;;5115851;28;20495;-79
2022/01/19 12:31:24;;;;;;;1.45;1.35;;;3.90;99.90;;;;;;5116336;28;20036;-79
2022/01/19 12:34:02;;;;;;;0.60;0.60;;;4.00;99.90;;;;;;5116228;28;20047;-78
2022/01/19 12:36:47;;;;;;;0.80;0.80;;;4.00;99.90;;;;;;5116167;28;20040;-79
2022/01/19 12:39:24;;;;;;;2.97;2.78;;;4.00;99.90;;;;;;5116074;28;20454;-79
2022/01/19 12:41:59;;;;;;;;;;;4.00;99.90;;;;;;5097928;28;20039;-78
2022/01/19 12:44:34;;;;;;;4.95;4.65;;;4.00;99.90;;;;;;5115870;28;19919;-78
2022/01/19 12:47:20;;;;;;;1.83;1.73;;;4.00;99.90;;;;;;5116175;28;20130;-79
2022/01/19 12:49:46;;;;;;;16.70;11.82;;;4.10;99.90;;;;;;5101303;28;20499;-77
2022/01/19 12:52:15;;;;;;;3.42;2.78;;;4.10;99.90;;;;;;5115749;28;20047;-79
2022/01/19 12:54:40;;;;;;;6.30;5.68;;;4.10;99.90;;;;;;5116058;28;20399;-79
2022/01/19 12:57:06;;;;;;;0.93;0.93;;;4.10;99.90;;;;;;5114709;28;20036;-80
2022/01/19 12:59:33;;;;;;;2.03;1.93;;;4.10;99.90;;;;;;5116003;28;20118;-80
2022/01/19 13:02:00;;;;;;;2.90;2.65;;;4.20;99.90;;;;;;5115650;28;20269;-79
2022/01/19 13:04:31;;;;;;;1.70;1.60;;;4.20;99.90;;;;;;5115575;28;20046;-79
2022/01/19 13:07:20;;;;;;;1.73;1.63;;;4.20;99.90;;;;;;5115767;28;20119;-79
2022/01/19 13:10:07;;;;;;;2.10;1.90;;;4.20;99.90;;;;;;5115663;28;20047;-79
2022/01/19 13:12:48;;;;;;;1.48;1.38;;;4.20;99.90;;;;;;5115833;28;20051;-80
2022/01/19 13:15:13;;;;;;;2.58;0.90;;;4.20;99.90;;;;;;5115576;27;20050;-79
2022/01/19 13:17:44;;;;;;;5.53;2.35;;;4.20;99.90;;;;;;5115560;28;20031;-79
2022/01/19 13:20:14;;;;;;;2.80;2.65;;;4.30;99.90;;;;;;5115643;28;20036;-80
2022/01/19 13:22:54;;;;;;;4.22;2.58;;;4.20;99.90;;;;;;5115496;28;20039;-79
2022/01/19 13:25:32;;;;;;;4.78;3.42;;;4.20;99.90;;;;;;5115376;28;20043;-80
2022/01/19 13:28:01;;;;;;;1.05;1.05;;;4.20;99.90;;;;;;5115267;28;20058;-79
2022/01/19 13:30:32;;;;;;;0.75;0.75;;;4.30;99.90;;;;;;5115309;28;20118;-78
2022/01/19 13:33:08;;;;;;;0.60;0.60;;;4.20;99.90;;;;;;5115001;28;20085;-79
2022/01/19 13:35:33;;;;;;;5.30;4.00;;;4.20;99.90;;;;;;5115161;28;20119;-79
2022/01/19 13:37:59;;;;;;;1.38;1.27;;;4.20;99.90;;;;;;5114603;28;20074;-79
2022/01/19 13:40:31;;;;;;;2.20;2.10;;;4.30;99.90;;;;;;5115078;28;20032;-79
2022/01/19 13:43:11;;;;;;;3.03;2.50;;;4.30;99.90;;;;;;5115195;28;20118;-79
2022/01/19 13:50:46;;;;;;;2.40;2.15;;;4.40;99.90;;;;;;5135550;27;20077;-80
2022/01/19 13:53:14;;;;;;;3.80;3.33;;;4.40;99.90;;;;;;5135486;27;20113;-79
2022/01/19 13:55:39;;;;;;;0.60;0.60;;;4.40;99.90;;;;;;5135333;27;20122;-79
2022/01/19 13:58:14;;;;;;;6.80;3.80;;;4.40;99.90;;;;;;5135087;27;20077;-79
2022/01/19 14:00:54;;;;;;;4.70;4.03;;;4.40;99.90;;;;;;5135003;27;20591;-79
2022/01/19 14:03:22;;;;;;;1.38;1.02;;;4.50;99.90;;;;;;5135326;27;20035;-79
2022/01/19 14:05:51;;;;;;;0.98;0.98;;;4.50;99.90;;;;;;5134882;27;20043;-79
2022/01/19 14:08:34;;;;;;;1.15;1.10;;;4.50;99.90;;;;;;5135176;27;20039;-79
2022/01/19 14:11:00;;;;;;;0.95;0.93;;;4.50;99.90;;;;;;5116955;27;20039;-81
2022/01/19 14:13:37;;;;;;;1.87;1.77;;;4.50;99.90;;;;;;5135142;27;20031;-80
2022/01/19 14:16:23;;;;;;;14.23;2.67;;;4.00;99.90;;;;;;5135014;27;20632;-80
2022/01/19 14:19:06;;;;;;;0.75;0.75;;;4.50;99.90;;;;;;5134671;27;20269;-81
2022/01/19 14:21:32;;;;;;;2.75;2.55;;;4.50;99.90;;;;;;5134979;27;20031;-79
2022/01/19 14:23:59;;;;;;;1.83;1.73;;;4.50;99.90;;;;;;5116793;27;20032;-79
2022/01/19 14:26:25;;;;;;;1.55;1.45;;;4.50;99.90;;;;;;5134936;27;20039;-80
2022/01/19 14:29:11;;;;;;;1.50;1.40;;;4.60;99.90;;;;;;5134903;27;20074;-78
2022/01/19 14:31:58;;;;;;;26.83;14.65;;;4.60;99.90;;;;;;5116327;27;20039;-78
2022/01/19 14:34:41;;;;;;;0.93;0.90;;;4.60;99.90;;;;;;5132588;27;20035;-78
2022/01/19 14:37:13;;;;;;;1.33;1.25;;;4.50;99.90;;;;;;5130766;27;20039;-77
2022/01/19 14:40:07;;;;;;;12.55;8.73;;;4.60;99.90;;;;;;5132846;27;20039;-78
2022/01/19 14:42:36;;;;;;;3.40;3.10;;;4.60;99.90;;;;;;5131425;28;20035;-80
2022/01/19 14:45:24;;;;;;;0.98;0.98;;;4.60;99.90;;;;;;5133880;28;20479;-79